Time;durP1;ratioP1;P1;durP2;ratioP2;P2;SDS_P1;SDS_P2;PMS_P1;PMS_P2;Temp;Humidity;BMP_temperature;BMP_pressure;BME280_temperature;BME280_humidity;BME280_pressure;Samples;Min_cycle;Max_cycle;Signal;HPM_P1;HPM_P2
2022/06/21 00:01:11;;;;;;;3.57;3.20;;;11.20;99.90;;;;;;5026271;28;21207;-87
2022/06/21 00:03:37;;;;;;;4.73;3.17;;;11.10;99.90;;;;;;5019820;28;20186;-87
2022/06/21 00:06:03;;;;;;;5.97;3.20;;;11.10;99.90;;;;;;5027022;28;20183;-86
2022/06/21 00:08:32;;;;;;;4.53;3.17;;;11.10;99.90;;;;;;5026795;28;20270;-86
2022/06/21 00:10:59;;;;;;;5.37;3.00;;;11.10;99.90;;;;;;5019697;28;20672;-87
2022/06/21 00:13:28;;;;;;;3.80;2.80;;;11.00;99.90;;;;;;5026700;28;20207;-87
2022/06/21 00:16:01;;;;;;;4.17;2.60;;;11.00;99.90;;;;;;5043271;28;20187;-87
2022/06/21 00:18:30;;;;;;;4.00;3.40;;;11.00;99.90;;;;;;5017896;28;20176;-88
2022/06/21 00:20:55;;;;;;;5.87;3.10;;;11.00;99.90;;;;;;5025788;28;20217;-87
2022/06/21 00:23:26;;;;;;;6.40;3.40;;;11.00;99.90;;;;;;5042853;28;20186;-87
2022/06/21 00:25:52;;;;;;;4.67;3.30;;;10.90;99.90;;;;;;5026467;28;20574;-87
2022/06/21 00:28:19;;;;;;;4.43;3.60;;;10.90;99.90;;;;;;5028212;28;20240;-86
2022/06/21 00:30:47;;;;;;;4.80;3.47;;;10.90;99.90;;;;;;5018639;28;20219;-87
2022/06/21 00:33:19;;;;;;;6.57;3.43;;;10.90;99.90;;;;;;5018993;28;20243;-86
2022/06/21 00:35:50;;;;;;;4.83;3.20;;;10.90;99.90;;;;;;5043245;28;20187;-86
2022/06/21 00:38:23;;;;;;;4.40;3.23;;;10.90;99.90;;;;;;5042329;28;20205;-87
2022/06/21 00:40:48;;;;;;;4.07;3.40;;;10.90;99.90;;;;;;5016542;28;20199;-87
2022/06/21 00:43:21;;;;;;;6.00;3.50;;;10.80;99.90;;;;;;5026240;28;20264;-86
2022/06/21 00:45:49;;;;;;;6.30;4.23;;;10.80;99.90;;;;;;5025638;28;20190;-87
2022/06/21 00:48:26;;;;;;;6.03;4.23;;;10.70;99.90;;;;;;5042239;28;20252;-87
2022/06/21 00:50:56;;;;;;;5.50;3.57;;;10.70;99.90;;;;;;5017114;28;20606;-86
2022/06/21 00:53:26;;;;;;;5.83;3.57;;;10.80;99.90;;;;;;5027257;28;20285;-87
2022/06/21 00:56:16;;;;;;;4.60;3.53;;;10.80;99.90;;;;;;5026175;28;20254;-87
2022/06/21 00:58:42;;;;;;;4.77;3.63;;;10.80;99.90;;;;;;5026720;28;20183;-86
2022/06/21 01:01:18;;;;;;;4.43;3.73;;;10.70;99.90;;;;;;5042472;28;20305;-87
2022/06/21 01:03:58;;;;;;;4.57;3.67;;;10.70;99.90;;;;;;5017916;28;20182;-86
2022/06/21 01:06:32;;;;;;;4.57;3.30;;;10.60;99.90;;;;;;5025442;28;20793;-87
2022/06/21 01:09:02;;;;;;;4.87;3.83;;;10.60;99.90;;;;;;5018772;28;20272;-87
2022/06/21 01:11:37;;;;;;;4.20;3.80;;;10.50;99.90;;;;;;5024742;28;20203;-87
2022/06/21 01:14:03;;;;;;;4.20;3.80;;;10.50;99.90;;;;;;5041732;28;20194;-86
2022/06/21 01:16:32;;;;;;;6.27;4.00;;;10.50;99.90;;;;;;5025594;28;20710;-87
2022/06/21 01:18:58;;;;;;;4.63;4.17;;;10.50;99.90;;;;;;5017801;28;20182;-86
2022/06/21 01:21:25;;;;;;;4.67;3.80;;;10.50;99.90;;;;;;5041262;28;20220;-87
2022/06/21 01:24:14;;;;;;;5.53;3.90;;;10.50;99.90;;;;;;5025918;28;20656;-86
2022/06/21 01:26:42;;;;;;;4.00;3.57;;;10.50;99.90;;;;;;5025234;28;20293;-86
2022/06/21 01:29:13;;;;;;;5.90;4.00;;;10.50;99.90;;;;;;5017251;28;20181;-87
2022/06/21 01:31:39;;;;;;;6.03;4.70;;;10.40;99.90;;;;;;5025107;28;20234;-87
2022/06/21 01:34:20;;;;;;;4.63;3.83;;;10.40;99.90;;;;;;5025649;28;20183;-87
2022/06/21 01:36:54;;;;;;;4.50;3.87;;;10.40;99.90;;;;;;5025056;28;20184;-86
2022/06/21 01:39:25;;;;;;;5.47;4.17;;;10.40;99.90;;;;;;5025173;28;20265;-88
2022/06/21 01:42:21;;;;;;;4.13;3.73;;;10.30;99.90;;;;;;5025535;28;20206;-87
2022/06/21 01:44:52;;;;;;;4.73;3.90;;;10.30;99.90;;;;;;5025088;28;20363;-86
2022/06/21 01:47:24;;;;;;;6.07;4.20;;;10.30;99.90;;;;;;5026463;28;20740;-86
2022/06/21 01:49:55;;;;;;;5.10;3.70;;;10.30;99.90;;;;;;5016818;28;20179;-87
2022/06/21 01:52:24;;;;;;;6.73;4.23;;;10.20;99.90;;;;;;5024121;28;20281;-86
2022/06/21 01:54:56;;;;;;;8.97;4.33;;;10.20;99.90;;;;;;5040528;28;20699;-87
2022/06/21 01:57:23;;;;;;;4.93;3.87;;;10.20;99.90;;;;;;5026651;28;20595;-87
2022/06/21 01:59:51;;;;;;;4.63;3.70;;;10.10;99.90;;;;;;5025744;28;20183;-87
2022/06/21 02:02:32;;;;;;;5.33;4.37;;;10.10;99.90;;;;;;5041938;28;20179;-87
2022/06/21 02:05:12;;;;;;;6.67;4.00;;;10.10;99.90;;;;;;5016482;28;20187;-87
2022/06/21 02:07:47;;;;;;;6.63;4.43;;;10.00;99.90;;;;;;5026133;28;20171;-86
2022/06/21 02:10:24;;;;;;;5.20;4.07;;;10.00;99.90;;;;;;5024092;28;20777;-87
2022/06/21 02:12:53;;;;;;;6.00;4.33;;;10.00;99.90;;;;;;5016206;28;20198;-87
2022/06/21 02:15:39;;;;;;;7.20;4.27;;;10.00;99.90;;;;;;5017501;28;20237;-87
2022/06/21 02:18:16;;;;;;;6.10;4.57;;;10.00;99.90;;;;;;5018101;28;20278;-86
2022/06/21 02:21:06;;;;;;;7.90;4.80;;;10.00;99.90;;;;;;5015704;28;20879;-87
2022/06/21 02:23:32;;;;;;;7.80;5.33;;;10.00;99.90;;;;;;5024625;28;20258;-86
2022/06/21 02:25:58;;;;;;;7.63;4.47;;;10.00;99.90;;;;;;5040663;28;20237;-86
2022/06/21 02:28:28;;;;;;;7.37;4.80;;;10.10;99.90;;;;;;5040797;28;20244;-86
2022/06/21 02:30:55;;;;;;;8.40;5.40;;;10.10;99.90;;;;;;5040860;28;20707;-87
2022/06/21 02:33:28;;;;;;;8.70;5.07;;;10.20;99.90;;;;;;5041523;28;20206;-88
2022/06/21 02:36:11;;;;;;;9.77;5.10;;;10.10;99.90;;;;;;5024484;28;20195;-86
2022/06/21 02:38:41;;;;;;;7.60;4.70;;;10.00;99.90;;;;;;5040786;28;20191;-88
2022/06/21 02:41:22;;;;;;;5.73;5.17;;;10.00;99.90;;;;;;5026737;28;20253;-89
2022/06/21 02:44:16;;;;;;;4.73;4.17;;;10.00;99.90;;;;;;5044016;28;20179;-87
2022/06/21 02:46:46;;;;;;;8.30;4.57;;;10.00;99.90;;;;;;5019130;28;20183;-88
2022/06/21 02:49:18;;;;;;;7.27;4.67;;;9.90;99.90;;;;;;5044933;28;20189;-87
2022/06/21 02:51:49;;;;;;;6.53;4.93;;;10.00;99.90;;;;;;5020160;28;20203;-87
2022/06/21 02:54:25;;;;;;;9.93;5.30;;;9.90;99.90;;;;;;5019856;28;20248;-88
2022/06/21 02:57:01;;;;;;;9.33;4.80;;;9.90;99.90;;;;;;5021357;28;20236;-87
2022/06/21 02:59:30;;;;;;;8.27;4.97;;;9.90;99.90;;;;;;5020235;28;20254;-86
2022/06/21 03:02:00;;;;;;;12.33;5.30;;;9.90;99.90;;;;;;5044067;28;20290;-87
2022/06/21 03:04:53;;;;;;;6.10;4.83;;;10.00;99.90;;;;;;5020182;28;20191;-87
2022/06/21 03:07:22;;;;;;;9.53;5.90;;;10.00;99.90;;;;;;5020849;28;20300;-84
2022/06/21 03:09:48;;;;;;;11.00;5.63;;;9.90;99.90;;;;;;5042502;28;20183;-85
2022/06/21 03:12:19;;;;;;;7.90;4.90;;;9.90;99.90;;;;;;5046333;28;20246;-89
2022/06/21 03:14:46;;;;;;;11.20;4.90;;;9.90;99.90;;;;;;5029915;28;20270;-89
2022/06/21 03:17:16;;;;;;;7.17;5.03;;;10.00;99.90;;;;;;5029675;28;20179;-89
2022/06/21 03:19:52;;;;;;;8.20;4.60;;;9.90;99.90;;;;;;5030042;28;20183;-87
2022/06/21 03:22:27;;;;;;;7.53;4.77;;;10.00;99.90;;;;;;5029621;28;20175;-87
2022/06/21 03:24:56;;;;;;;7.90;4.83;;;10.00;99.90;;;;;;5023103;28;20732;-87
2022/06/21 03:27:50;;;;;;;8.90;5.17;;;10.10;99.90;;;;;;5032184;28;20595;-88
2022/06/21 03:30:18;;;;;;;9.83;4.70;;;10.10;99.90;;;;;;5031393;28;20296;-86
2022/06/21 03:32:44;;;;;;;7.50;4.87;;;10.10;99.90;;;;;;5029818;28;20211;-87
2022/06/21 03:35:11;;;;;;;9.17;4.97;;;10.10;99.90;;;;;;5044271;28;20209;-86
2022/06/21 03:37:39;;;;;;;6.80;4.87;;;10.10;99.90;;;;;;5028649;28;20196;-87
2022/06/21 03:42:52;;;;;;;6.27;4.60;;;10.30;99.90;;;;;;5029981;28;20190;-87
2022/06/21 03:45:29;;;;;;;7.30;4.70;;;10.20;99.90;;;;;;5020937;28;20194;-88
2022/06/21 03:48:10;;;;;;;6.27;4.40;;;10.20;99.90;;;;;;5029375;28;20193;-88
2022/06/21 03:50:42;;;;;;;9.00;4.70;;;10.20;99.90;;;;;;5028798;28;20289;-88
2022/06/21 03:53:15;;;;;;;10.63;4.97;;;10.20;99.90;;;;;;5029074;28;20210;-88
2022/06/21 03:56:08;;;;;;;5.73;3.90;;;10.30;99.90;;;;;;5018382;28;20222;-88
2022/06/21 03:58:47;;;;;;;5.57;4.33;;;10.30;99.90;;;;;;5028362;28;20185;-88
2022/06/21 04:01:27;;;;;;;5.87;3.90;;;10.30;99.90;;;;;;5027795;28;20202;-87
2022/06/21 04:04:04;;;;;;;10.33;4.40;;;10.40;99.90;;;;;;5028546;28;20179;-88
2022/06/21 04:06:45;;;;;;;10.43;4.60;;;10.40;99.90;;;;;;5019279;28;20187;-87
2022/06/21 04:09:34;;;;;;;7.70;4.00;;;10.50;99.90;;;;;;5020064;28;20736;-87
2022/06/21 04:12:13;;;;;;;9.43;4.90;;;10.50;99.90;;;;;;5029316;28;20676;-88
2022/06/21 04:15:08;;;;;;;5.83;4.60;;;10.60;99.90;;;;;;5027884;28;20179;-88
2022/06/21 04:17:40;;;;;;;6.80;4.07;;;10.70;99.90;;;;;;4998645;28;20683;-88
2022/06/21 04:20:21;;;;;;;8.40;4.37;;;10.60;99.90;;;;;;5020254;28;20175;-86
2022/06/21 04:23:01;;;;;;;7.87;4.20;;;10.70;99.90;;;;;;5021793;28;20183;-88
2022/06/21 04:25:35;;;;;;;6.60;3.80;;;10.80;99.90;;;;;;5044624;28;20207;-87
2022/06/21 04:28:13;;;;;;;7.00;4.37;;;10.80;99.90;;;;;;5020781;28;20185;-87
2022/06/21 04:30:41;;;;;;;6.37;3.63;;;10.90;99.90;;;;;;5045073;28;20285;-87
2022/06/21 04:33:17;;;;;;;7.17;4.23;;;11.00;99.90;;;;;;5044551;28;20669;-90
2022/06/21 04:35:50;;;;;;;6.17;3.60;;;11.10;99.90;;;;;;5025345;28;20190;-88
2022/06/21 04:38:57;;;;;;;5.53;4.33;;;11.20;99.90;;;;;;5025115;28;20183;-88
2022/06/21 04:41:50;;;;;;;7.77;4.87;;;11.30;99.90;;;;;;4998054;28;20211;-87
2022/06/21 04:44:24;;;;;;;8.30;4.63;;;11.40;99.90;;;;;;5026309;28;20198;-87
2022/06/21 04:47:17;;;;;;;7.18;5.55;;;11.60;99.90;;;;;;5027825;28;20187;-88
2022/06/21 04:49:55;;;;;;;10.13;6.00;;;11.90;99.90;;;;;;5018039;28;20191;-88
2022/06/21 04:52:44;;;;;;;7.65;5.78;;;12.20;99.90;;;;;;5043695;28;20612;-86
2022/06/21 04:55:15;;;;;;;8.85;7.00;;;12.60;99.90;;;;;;5021843;28;20182;-87
2022/06/21 04:57:41;;;;;;;12.73;8.43;;;12.90;99.90;;;;;;5023632;28;20187;-86
2022/06/21 05:00:15;;;;;;;13.43;8.13;;;13.10;99.90;;;;;;5042039;28;20194;-89
2022/06/21 05:02:43;;;;;;;12.30;8.57;;;13.40;99.90;;;;;;5024905;28;20229;-86
2022/06/21 05:05:21;;;;;;;12.55;9.57;;;13.70;99.90;;;;;;5041563;28;20191;-87
2022/06/21 05:08:09;;;;;;;12.50;8.43;;;13.80;99.90;;;;;;5025782;28;20190;-87
2022/06/21 05:11:15;;;;;;;9.40;7.50;;;14.50;88.10;;;;;;5041383;28;20207;-86
2022/06/21 05:13:44;;;;;;;8.85;4.78;;;16.00;10.30;;;;;;5024899;28;20245;-86
2022/06/21 05:16:30;;;;;;;7.03;3.38;;;17.50;1.00;;;;;;5027207;28;20182;-86
2022/06/21 05:19:09;;;;;;;4.60;2.45;;;19.10;1.00;;;;;;5025339;28;20190;-86
2022/06/21 05:21:49;;;;;;;5.30;1.83;;;20.30;48.80;;;;;;5041772;28;20293;-88
2022/06/21 05:24:22;;;;;;;3.42;1.60;;;21.10;99.90;;;;;;5018598;28;20182;-86
2022/06/21 05:27:15;;;;;;;3.95;1.70;;;22.00;1.00;;;;;;5017497;28;20217;-87
2022/06/21 05:29:50;;;;;;;3.80;1.70;;;22.90;99.90;;;;;;5019727;28;20599;-86
2022/06/21 05:32:28;;;;;;;3.50;1.58;;;23.70;78.10;;;;;;5042208;28;20252;-87
2022/06/21 05:35:00;;;;;;;3.40;1.60;;;24.10;1.00;;;;;;5026208;28;20175;-88
2022/06/21 05:37:29;;;;;;;3.85;1.80;;;24.40;1.00;;;;;;5024806;28;20795;-88
2022/06/21 05:39:56;;;;;;;4.57;1.63;;;24.20;1.00;;;;;;5015557;28;20191;-87
2022/06/21 05:42:25;;;;;;;5.28;1.85;;;24.00;1.00;;;;;;5017938;28;20269;-87
2022/06/21 05:44:54;;;;;;;3.78;1.90;;;24.10;1.00;;;;;;5025707;28;20186;-87
2022/06/21 05:47:33;;;;;;;7.55;1.73;;;24.10;1.00;;;;;;5026329;28;20179;-86
2022/06/21 05:50:00;;;;;;;4.10;1.50;;;24.10;1.00;;;;;;5026790;28;20182;-88
2022/06/21 05:52:31;;;;;;;4.68;1.38;;;24.10;1.00;;;;;;5042643;28;20214;-87
2022/06/21 05:55:05;;;;;;;6.68;1.70;;;24.60;1.00;;;;;;5042353;28;20736;-87
2022/06/21 05:57:42;;;;;;;4.28;1.70;;;24.30;1.00;;;;;;5025532;28;20269;-87
2022/06/21 06:00:24;;;;;;;5.20;1.52;;;;;;;;;;5015638;28;20174;-88
2022/06/21 06:02:51;;;;;;;5.40;1.48;;;;;;;;;;5015862;28;20551;-87
2022/06/21 06:05:30;;;;;;;3.55;1.33;;;;;;;;;;5015922;28;20190;-89
2022/06/21 06:07:59;;;;;;;5.03;1.55;;;;;;;;;;5027120;28;20655;-89
2022/06/21 06:10:26;;;;;;;4.97;1.90;;;;;;;;;;5027431;28;20218;-88
2022/06/21 06:12:55;;;;;;;6.32;1.60;;;;;;;;;;5026815;28;20734;-87
2022/06/21 06:15:30;;;;;;;5.90;1.70;;;;;;;;;;5019132;28;20642;-87
2022/06/21 06:18:00;;;;;;;6.05;1.58;;;;;;;;;;5028820;28;20186;-87
2022/06/21 06:20:34;;;;;;;3.45;1.33;;;;;;;;;;5018256;28;20692;-88
2022/06/21 06:23:11;;;;;;;3.42;1.65;;;24.70;1.00;;;;;;5027365;28;20223;-87
2022/06/21 06:25:42;;;;;;;8.65;2.00;;;23.80;1.00;;;;;;5047896;28;20201;-86
2022/06/21 06:28:26;;;;;;;4.18;1.85;;;24.60;1.00;;;;;;5023340;28;20186;-86
2022/06/21 06:31:04;;;;;;;6.20;1.83;;;24.90;99.90;;;;;;5031640;28;20289;-86
2022/06/21 06:33:37;;;;;;;4.90;1.50;;;25.50;99.90;;;;;;5020294;28;20198;-87
2022/06/21 06:36:12;;;;;;;4.50;1.58;;;26.10;99.90;;;;;;5030161;28;21100;-87
2022/06/21 06:38:37;;;;;;;4.80;2.10;;;26.50;99.90;;;;;;5031546;28;20219;-86
2022/06/21 06:41:06;;;;;;;5.30;1.58;;;;;;;;;;5047060;28;20261;-87
2022/06/21 06:43:44;;;;;;;5.68;1.55;;;;;;;;;;5033498;28;20266;-86
2022/06/21 06:48:46;;;;;;;5.40;1.40;;;;;;;;;;5684123;23;20486;-87
2022/06/21 06:51:15;;;;;;;4.18;1.50;;;;;;;;;;5007548;28;20210;-86
2022/06/21 06:54:09;;;;;;;4.20;1.60;;;;;;;;;;5002004;28;20282;-85
2022/06/21 06:56:44;;;;;;;4.53;1.50;;;;;;;;;;5001062;28;20604;-85
2022/06/21 06:59:13;;;;;;;5.15;1.23;;;25.80;99.90;;;;;;5017400;28;20214;-85
2022/06/21 07:01:47;;;;;;;6.00;1.60;;;26.80;99.90;;;;;;4994117;28;20247;-86
2022/06/21 07:04:15;;;;;;;8.68;1.65;;;27.00;99.90;;;;;;4988731;28;20223;-85
2022/06/21 07:06:44;;;;;;;4.40;1.55;;;26.10;99.90;;;;;;4992363;28;20184;-84
2022/06/21 07:09:37;;;;;;;4.20;1.40;;;25.50;99.90;;;;;;4989996;28;20654;-85
2022/06/21 07:12:14;;;;;;;3.67;1.20;;;25.90;99.90;;;;;;4988779;28;20199;-84
2022/06/21 07:14:40;;;;;;;4.38;1.20;;;26.50;99.90;;;;;;4987322;28;20262;-85
2022/06/21 07:17:37;;;;;;;5.03;1.83;;;25.90;99.90;;;;;;4998433;28;20326;-85
2022/06/21 07:20:12;;;;;;;5.65;1.50;;;26.60;99.90;;;;;;4986392;28;20208;-84
2022/06/21 07:22:37;;;;;;;4.38;1.50;;;25.10;99.90;;;;;;4984718;28;20239;-85
2022/06/21 07:25:46;;;;;;;5.28;1.77;;;24.30;99.90;;;;;;4985345;28;20275;-84
2022/06/21 07:28:31;;;;;;;6.15;1.27;;;23.80;99.90;;;;;;4974906;28;20636;-86
2022/06/21 07:31:01;;;;;;;8.90;1.77;;;22.90;99.90;;;;;;4985162;28;20188;-84
2022/06/21 07:33:34;;;;;;;3.92;1.35;;;22.00;1.00;;;;;;4994574;28;20196;-85
2022/06/21 07:36:06;;;;;;;5.25;1.38;;;21.30;99.90;;;;;;4987958;28;20551;-85
2022/06/21 07:38:47;;;;;;;5.20;1.48;;;21.00;99.90;;;;;;4985962;28;20235;-85
2022/06/21 07:41:16;;;;;;;5.15;1.60;;;20.60;1.00;;;;;;4985076;28;20188;-86
2022/06/21 07:43:50;;;;;;;5.50;1.85;;;20.60;99.90;;;;;;4985021;28;20204;-86
2022/06/21 07:46:23;;;;;;;5.13;1.85;;;20.20;99.90;;;;;;4984761;28;20684;-85
2022/06/21 07:48:59;;;;;;;8.07;2.40;;;19.80;99.90;;;;;;4984391;28;20262;-85
2022/06/21 07:51:39;;;;;;;5.22;2.10;;;19.40;1.00;;;;;;4984793;28;20262;-85
2022/06/21 07:54:16;;;;;;;4.60;1.80;;;19.10;1.00;;;;;;4984722;28;20208;-87
2022/06/21 07:56:49;;;;;;;4.72;1.92;;;18.70;99.90;;;;;;4984716;28;20187;-86
2022/06/21 07:59:36;;;;;;;4.95;1.80;;;18.70;99.90;;;;;;4992364;28;20471;-85
2022/06/21 08:07:39;;;;;;;5.60;2.30;;;19.90;1.00;;;;;;4985126;28;20223;-86
2022/06/21 08:10:33;;;;;;;4.03;2.00;;;19.90;1.00;;;;;;4983868;28;20286;-86
2022/06/21 08:12:59;;;;;;;26.27;8.02;;;19.90;1.00;;;;;;4972003;28;20208;-85
2022/06/21 08:15:30;;;;;;;120.28;37.88;;;19.80;1.00;;;;;;4983859;28;20222;-85
2022/06/21 08:18:02;;;;;;;19.73;8.90;;;19.70;1.00;;;;;;4985179;28;20276;-86
2022/06/21 08:20:46;;;;;;;29.48;10.02;;;19.70;99.90;;;;;;4984921;28;20246;-87
2022/06/21 08:23:20;;;;;;;20.00;6.97;;;19.50;5.10;;;;;;4985279;28;20211;-86
2022/06/21 08:26:24;;;;;;;39.63;14.85;;;19.60;1.00;;;;;;4983962;28;20223;-86
2022/06/21 08:28:53;;;;;;;24.25;9.77;;;20.00;1.00;;;;;;4983222;28;20880;-86
2022/06/21 08:31:33;;;;;;;8.07;3.80;;;20.00;1.00;;;;;;4990066;28;20230;-85
2022/06/21 08:34:20;;;;;;;9.32;3.97;;;19.60;99.90;;;;;;4969436;28;20309;-85
2022/06/21 08:36:56;;;;;;;14.57;5.50;;;19.40;99.90;;;;;;4983800;28;20191;-85
2022/06/21 08:39:30;;;;;;;10.15;3.95;;;19.20;68.40;;;;;;4983576;28;20842;-85
2022/06/21 08:42:24;;;;;;;7.40;3.13;;;19.20;99.90;;;;;;4983540;28;20270;-86
2022/06/21 08:45:43;;;;;;;4.57;2.03;;;19.30;1.00;;;;;;4983779;28;20180;-85
2022/06/21 08:48:52;;;;;;;7.43;2.30;;;19.70;1.00;;;;;;4995406;28;20220;-88
2022/06/21 08:51:31;;;;;;;6.70;2.58;;;20.00;99.90;;;;;;4972509;28;20208;-85
2022/06/21 08:54:50;;;;;;;9.10;2.53;;;19.90;99.90;;;;;;4984433;28;20277;-86
2022/06/21 08:57:33;;;;;;;7.63;1.85;;;19.70;99.90;;;;;;4944570;28;20185;-85
2022/06/21 09:00:15;;;;;;;4.47;1.70;;;19.50;99.90;;;;;;4943047;28;20293;-86
2022/06/21 09:03:25;;;;;;;4.07;1.73;;;19.50;99.90;;;;;;4965750;28;20315;-85
2022/06/21 09:06:03;;;;;;;5.40;1.63;;;19.50;99.90;;;;;;4965723;28;20200;-86
2022/06/21 09:08:38;;;;;;;5.38;1.77;;;19.40;99.90;;;;;;4984568;28;20611;-86
2022/06/21 09:11:22;;;;;;;5.85;1.67;;;19.40;99.90;;;;;;4984587;28;20190;-86
2022/06/21 09:14:09;;;;;;;3.55;1.40;;;19.70;99.90;;;;;;4983283;28;20212;-86
2022/06/21 09:16:50;;;;;;;4.20;1.85;;;19.80;94.10;;;;;;4983081;28;20184;-85
2022/06/21 09:19:30;;;;;;;4.65;1.92;;;19.70;1.00;;;;;;4982362;28;20557;-85
2022/06/21 09:22:20;;;;;;;4.35;1.73;;;19.50;1.00;;;;;;4982936;28;20184;-86
2022/06/21 09:25:16;;;;;;;3.65;1.20;;;19.40;1.00;;;;;;4998910;28;20216;-86
2022/06/21 09:27:51;;;;;;;4.90;1.63;;;19.40;99.90;;;;;;4998483;28;20551;-86
2022/06/21 09:30:23;;;;;;;3.72;1.98;;;19.50;99.90;;;;;;4982670;28;20179;-86
2022/06/21 09:33:07;;;;;;;3.47;1.65;;;19.30;1.00;;;;;;4999150;28;20221;-86
2022/06/21 09:35:39;;;;;;;5.70;1.98;;;19.40;1.00;;;;;;4971740;28;20180;-86
2022/06/21 09:38:17;;;;;;;5.10;1.80;;;19.30;1.00;;;;;;4983937;28;20219;-86
2022/06/21 09:41:12;;;;;;;3.92;1.70;;;19.30;22.90;;;;;;4983811;28;20669;-87
2022/06/21 09:44:04;;;;;;;3.95;1.55;;;19.20;2.70;;;;;;4982644;28;20506;-87
2022/06/21 09:46:33;;;;;;;6.00;1.60;;;19.20;99.90;;;;;;4982739;28;20188;-86
2022/06/21 09:49:16;;;;;;;3.10;1.50;;;19.10;1.00;;;;;;4981769;28;20207;-85
2022/06/21 09:52:04;;;;;;;5.90;1.63;;;19.20;1.00;;;;;;4984059;28;20214;-86
2022/06/21 09:54:36;;;;;;;5.38;1.70;;;19.20;1.00;;;;;;4985378;28;20267;-85
2022/06/21 09:57:33;;;;;;;5.30;1.75;;;19.20;1.00;;;;;;4985059;28;20199;-86
2022/06/21 10:00:11;;;;;;;5.38;1.90;;;19.20;99.90;;;;;;4998443;28;20212;-86
2022/06/21 10:02:59;;;;;;;3.30;1.40;;;19.10;99.90;;;;;;4981432;28;20195;-86
2022/06/21 10:05:28;;;;;;;5.57;2.08;;;19.10;1.00;;;;;;4998542;28;20250;-86
2022/06/21 10:08:25;;;;;;;6.50;1.92;;;19.10;99.90;;;;;;4981938;28;20238;-87
2022/06/21 10:11:26;;;;;;;4.00;1.60;;;19.00;99.90;;;;;;4982518;28;20188;-86
2022/06/21 10:14:19;;;;;;;5.78;2.05;;;19.20;99.90;;;;;;4983724;28;20294;-86
2022/06/21 10:16:58;;;;;;;4.00;1.77;;;19.30;1.00;;;;;;4982240;28;20617;-87
2022/06/21 10:19:42;;;;;;;5.03;1.92;;;19.20;1.00;;;;;;4976350;28;20208;-86
2022/06/21 10:22:29;;;;;;;4.78;1.80;;;19.10;99.90;;;;;;4983780;28;20242;-86
2022/06/21 10:25:14;;;;;;;6.85;1.88;;;18.90;99.90;;;;;;4981684;28;20247;-86
2022/06/21 10:28:00;;;;;;;5.53;1.70;;;19.10;1.00;;;;;;4981793;28;20641;-88
2022/06/21 10:30:47;;;;;;;5.28;2.10;;;19.30;1.00;;;;;;4997802;28;20172;-88
2022/06/21 10:33:34;;;;;;;5.07;1.55;;;19.40;99.90;;;;;;4990414;28;20716;-87
2022/06/21 10:36:02;;;;;;;4.82;1.88;;;19.60;99.90;;;;;;4982149;28;20287;-86
2022/06/21 10:39:03;;;;;;;4.85;1.52;;;19.70;1.00;;;;;;4982021;28;20200;-86
2022/06/21 10:41:41;;;;;;;3.78;1.65;;;19.80;1.00;;;;;;4998579;28;20665;-86
2022/06/21 10:44:43;;;;;;;19.30;4.50;;;19.80;99.90;;;;;;4993743;28;20192;-86
2022/06/21 10:47:35;;;;;;;166.98;20.17;;;19.80;1.00;;;;;;4983096;28;20604;-88
2022/06/21 10:50:13;;;;;;;27.95;4.25;;;19.90;1.00;;;;;;4965006;28;20719;-87
2022/06/21 10:52:58;;;;;;;36.58;4.90;;;19.80;99.90;;;;;;4981975;28;20208;-86
2022/06/21 10:55:44;;;;;;;13.95;2.50;;;19.70;1.00;;;;;;4983165;28;20180;-86
2022/06/21 10:59:01;;;;;;;12.15;2.10;;;19.60;99.90;;;;;;4982163;28;20681;-89
2022/06/21 11:01:42;;;;;;;2.45;1.33;;;19.60;1.00;;;;;;4982565;28;20242;-87
2022/06/21 11:04:46;;;;;;;5.43;2.00;;;19.40;99.90;;;;;;4983289;28;20195;-87
2022/06/21 11:07:27;;;;;;;4.25;1.33;;;19.40;99.90;;;;;;4984497;28;20357;-88
2022/06/21 11:10:33;;;;;;;3.17;1.10;;;19.70;99.90;;;;;;4987123;28;20220;-87
2022/06/21 11:13:11;;;;;;;5.10;1.50;;;19.80;99.90;;;;;;4971680;28;20212;-87
2022/06/21 11:16:07;;;;;;;2.72;1.20;;;19.90;99.90;;;;;;4985596;28;20216;-86
2022/06/21 11:18:53;;;;;;;2.90;1.42;;;19.80;80.20;;;;;;5001655;28;20619;-86
2022/06/21 11:21:26;;;;;;;3.25;1.08;;;19.70;11.70;;;;;;4986835;28;20600;-87
2022/06/21 11:24:22;;;;;;;5.45;1.80;;;19.80;1.00;;;;;;4985597;28;20240;-89
2022/06/21 11:26:53;;;;;;;8.13;2.17;;;20.00;99.90;;;;;;5001904;28;20184;-87
2022/06/21 11:29:37;;;;;;;5.28;1.40;;;20.20;99.90;;;;;;4985296;28;20263;-90
2022/06/21 11:32:19;;;;;;;3.90;1.20;;;20.10;20.70;;;;;;4984851;28;20188;-87
2022/06/21 11:34:54;;;;;;;4.15;1.20;;;20.00;1.00;;;;;;4985259;28;20275;-88
2022/06/21 11:37:43;;;;;;;3.90;1.27;;;20.00;56.80;;;;;;4985031;28;20901;-88
2022/06/21 11:40:29;;;;;;;2.83;1.20;;;20.00;1.00;;;;;;4985143;28;20295;-89
2022/06/21 11:42:57;;;;;;;2.70;1.05;;;20.00;1.00;;;;;;4984405;28;20195;-88
2022/06/21 11:45:40;;;;;;;4.43;1.48;;;20.20;1.00;;;;;;4983381;28;20215;-88
2022/06/21 11:48:21;;;;;;;2.65;1.05;;;20.20;1.00;;;;;;4984633;28;20723;-88
2022/06/21 11:50:55;;;;;;;3.83;1.27;;;20.20;1.00;;;;;;4984595;28;20214;-87
2022/06/21 11:53:39;;;;;;;3.20;1.20;;;20.20;1.00;;;;;;4985809;28;20196;-87
2022/06/21 11:56:42;;;;;;;3.03;1.10;;;20.50;46.30;;;;;;4985071;28;20180;-88
2022/06/21 11:59:28;;;;;;;2.42;1.10;;;20.60;1.00;;;;;;4984383;28;20204;-88
2022/06/21 12:02:03;;;;;;;2.30;1.27;;;20.70;1.00;;;;;;4985168;28;20188;-88
2022/06/21 12:05:01;;;;;;;3.25;1.48;;;20.80;1.00;;;;;;4993032;28;20184;-88
2022/06/21 12:07:39;;;;;;;2.60;1.17;;;20.90;1.00;;;;;;4974282;28;20184;-86
2022/06/21 12:10:26;;;;;;;3.08;1.20;;;20.90;1.00;;;;;;4999256;28;20207;-87
2022/06/21 12:13:28;;;;;;;4.15;1.40;;;20.80;1.00;;;;;;4980069;28;20262;-87
2022/06/21 12:16:02;;;;;;;3.25;1.02;;;20.80;1.00;;;;;;4984584;28;20188;-88
2022/06/21 12:18:32;;;;;;;2.53;1.30;;;20.90;1.00;;;;;;4982396;28;20204;-88
2022/06/21 12:21:06;;;;;;;3.05;1.20;;;21.00;1.00;;;;;;4984200;28;20701;-85
2022/06/21 12:23:37;;;;;;;3.20;1.00;;;21.10;1.00;;;;;;4983550;28;20208;-87
2022/06/21 12:26:05;;;;;;;2.13;0.90;;;21.10;1.00;;;;;;4984390;28;20192;-86
2022/06/21 12:28:35;;;;;;;3.80;1.30;;;21.20;1.00;;;;;;4983834;28;20210;-88
2022/06/21 12:31:11;;;;;;;4.07;1.20;;;21.00;1.00;;;;;;4983907;28;20302;-87
2022/06/21 12:33:39;;;;;;;1.83;0.80;;;20.80;99.90;;;;;;4984266;28;20262;-87
2022/06/21 12:36:13;;;;;;;3.15;1.30;;;20.90;99.90;;;;;;4984195;28;20188;-88
2022/06/21 12:38:44;;;;;;;1.60;0.80;;;20.90;99.90;;;;;;4982275;28;20697;-86
2022/06/21 12:41:12;;;;;;;1.77;0.82;;;21.00;99.90;;;;;;4982646;28;20188;-87
2022/06/21 12:44:05;;;;;;;3.38;0.90;;;21.00;99.90;;;;;;4974494;28;20192;-87
2022/06/21 12:46:52;;;;;;;1.75;0.93;;;21.00;99.90;;;;;;4990792;28;20686;-87
2022/06/21 12:49:37;;;;;;;1.45;1.00;;;21.30;99.90;;;;;;4982966;28;20216;-87
2022/06/21 12:52:23;;;;;;;3.10;0.88;;;21.50;99.90;;;;;;4983226;28;20540;-87
2022/06/21 12:55:18;;;;;;;2.58;0.80;;;21.60;99.90;;;;;;4983212;28;20242;-86
2022/06/21 12:58:19;;;;;;;4.10;1.10;;;21.70;99.90;;;;;;5002377;28;20184;-86
2022/06/21 13:00:57;;;;;;;2.08;0.93;;;21.60;99.90;;;;;;4979545;28;20180;-85
2022/06/21 13:04:16;;;;;;;3.17;1.30;;;21.50;99.90;;;;;;4990444;28;20188;-85
2022/06/21 13:07:03;;;;;;;3.08;1.20;;;21.30;99.90;;;;;;4991949;28;20180;-84
2022/06/21 13:09:52;;;;;;;1.30;0.88;;;21.40;99.90;;;;;;5005711;28;20274;-87
2022/06/21 13:12:43;;;;;;;1.23;0.60;;;21.40;99.90;;;;;;4990213;28;20629;-85
2022/06/21 13:15:17;;;;;;;1.55;0.75;;;21.50;99.90;;;;;;4990555;28;20555;-86
2022/06/21 13:18:13;;;;;;;2.28;0.93;;;21.60;99.90;;;;;;4987931;28;20175;-87
2022/06/21 13:20:53;;;;;;;1.92;0.70;;;21.60;99.90;;;;;;4980651;28;20200;-87
2022/06/21 13:24:09;;;;;;;2.00;0.70;;;21.40;99.90;;;;;;4984331;28;20191;-87
2022/06/21 13:26:53;;;;;;;1.45;0.60;;;21.50;99.90;;;;;;4947798;28;20192;-85
2022/06/21 13:29:47;;;;;;;2.95;0.90;;;21.50;99.90;;;;;;4981419;28;20226;-86
2022/06/21 13:32:22;;;;;;;2.28;0.73;;;21.50;99.90;;;;;;4999185;28;20654;-85
2022/06/21 13:35:04;;;;;;;2.95;0.80;;;21.40;99.90;;;;;;4982282;28;20712;-85
2022/06/21 13:37:41;;;;;;;1.55;0.80;;;21.50;99.90;;;;;;4993031;28;20184;-84
2022/06/21 13:40:22;;;;;;;2.95;0.80;;;21.80;99.90;;;;;;4980266;28;20295;-86
2022/06/21 13:43:11;;;;;;;1.33;0.60;;;22.10;99.90;;;;;;4982546;28;20187;-85
2022/06/21 13:45:49;;;;;;;2.15;0.82;;;22.30;99.90;;;;;;4982452;28;20192;-86
2022/06/21 13:48:28;;;;;;;2.50;0.98;;;22.30;99.90;;;;;;4988241;28;20294;-84
2022/06/21 13:51:12;;;;;;;2.70;1.17;;;22.30;99.90;;;;;;4980512;28;20227;-85
2022/06/21 13:53:52;;;;;;;1.20;0.65;;;22.30;99.90;;;;;;4980496;28;20212;-86
2022/06/21 13:56:40;;;;;;;2.13;0.95;;;22.40;99.90;;;;;;4977848;28;20180;-86
2022/06/21 13:59:14;;;;;;;3.58;0.90;;;22.30;99.90;;;;;;4976593;28;20206;-86
2022/06/21 14:02:01;;;;;;;2.65;0.90;;;22.20;99.90;;;;;;4981129;28;20227;-85
2022/06/21 14:04:58;;;;;;;1.58;0.80;;;22.50;99.90;;;;;;4979842;28;20215;-86